Terminal Aerodrome Forecast
Issued by NWS

Home | Current Version | Previous Version | Text Only | Print | Product List | Glossary On
Versions: 1 2 3 4 5 6 7 8 9 10 11 12
102
FTUS45 KPIH 241124
TAFSUN
TAF
KSUN 241124Z 2412/2512 31007KT P6SM SKC
     FM241800 14007KT P6SM VCSH BKN050 OVC100
     FM242200 16008KT P6SM -SHRA SCT020 OVC035
     FM250200 VRB05KT 6SM -RA BKN020 OVC035
     FM250700 31007KT P6SM VCSH OVC025
      AMD LTD TO CLD VIS AND WIND TIL 241300=

USA.gov is the U.S. government's official web portal to all federal, state and local government web resources and services.